Check out our new PWSWeather beta!
PWSweather.com
Personal Weather Stations
Station Observations
ANTHEMNP
Anthem North Parkside, Anthem, AZ 85086

Anthem North ParksideAnthem, AZ 85086

Lat: 33.876464, Lon: -112.13861199999997

Elevation: 1930

Station Type: Davis Vantage Vue with Pro 2 console

http://www.azjerry.com/ANPW/wxindex.php

High Low Average
Temperature 109.7°F43.2°C 84.0°F28.9°C 96.6°F35.9°C
Dew Point 41.0°F5.0°C 28.0°F-2.2°C 34.5°F1.4°C
Winds 6.9 mph 11.1 kmh Calm Calm 2.0 mph SSE3.2 kmh SSE
Wind Gusts 14.0 mph22.5 kmh -- 6.0 mph9.7 kmh
Humidity 20% 6% 12%
Pressure 29.91 in1012.9 mb 29.77 in1008.1 mb -
Precipitation 0.00 in0.0 mm - -
Hour Temp Dew Point Humidity Winds Wind Gusts Pressure Precip Precip Rate Daily Precip Total
12:00 AM 85.1°F29.5°C 38.0°F3.3°C 19% Calm Calm 1.0 mph1.6 kmh 29.86 in1011.2 mb 0.00 in0.0 mm 0.00 in0.0 mm 0.00 in0.0 mm
12:10 AM 84.7°F29.3°C 39.0°F3.9°C 20% Calm Calm 1.0 mph1.6 kmh 29.86 in1011.2 mb 0.00 in0.0 mm 0.00 in0.0 mm 0.00 in0.0 mm
12:20 AM 84.4°F29.1°C 38.0°F3.3°C 19% Calm Calm 1.0 mph1.6 kmh 29.86 in1011.2 mb 0.00 in0.0 mm 0.00 in0.0 mm 0.00 in0.0 mm
12:30 AM 84.2°F29.0°C 38.0°F3.3°C 19% 1.9 mph N3.1 kmh N 4.0 mph6.4 kmh 29.86 in1011.2 mb 0.00 in0.0 mm 0.00 in0.0 mm 0.00 in0.0 mm
12:40 AM 85.0°F29.4°C 38.0°F3.3°C 19% 2.3 mph N3.7 kmh N 4.0 mph6.4 kmh 29.86 in1011.2 mb 0.00 in0.0 mm 0.00 in0.0 mm 0.00 in0.0 mm
12:50 AM 86.4°F30.2°C 40.0°F4.4°C 19% 2.4 mph NNE3.9 kmh NNE 5.0 mph8.0 kmh 29.86 in1011.2 mb 0.00 in0.0 mm 0.00 in0.0 mm 0.00 in0.0 mm
01:00 AM 86.1°F30.1°C 39.0°F3.9°C 19% 2.2 mph NE3.5 kmh NE 4.0 mph6.4 kmh 29.86 in1011.2 mb 0.00 in0.0 mm 0.00 in0.0 mm 0.00 in0.0 mm
01:10 AM 85.9°F29.9°C 39.0°F3.9°C 19% 1.8 mph NE2.9 kmh NE 5.0 mph8.0 kmh 29.86 in1011.2 mb 0.00 in0.0 mm 0.00 in0.0 mm 0.00 in0.0 mm
01:20 AM 86.1°F30.1°C 39.0°F3.9°C 19% 1.2 mph NNE1.9 kmh NNE 3.0 mph4.8 kmh 29.86 in1011.2 mb 0.00 in0.0 mm 0.00 in0.0 mm 0.00 in0.0 mm
01:30 AM 87.1°F30.6°C 40.0°F4.4°C 19% 3.4 mph N5.5 kmh N 7.0 mph11.3 kmh 29.86 in1011.2 mb 0.00 in0.0 mm 0.00 in0.0 mm 0.00 in0.0 mm
01:40 AM 86.5°F30.3°C 40.0°F4.4°C 19% 2.7 mph NNE4.3 kmh NNE 5.0 mph8.0 kmh 29.86 in1011.2 mb 0.00 in0.0 mm 0.00 in0.0 mm 0.00 in0.0 mm
01:50 AM 86.0°F30.0°C 41.0°F5.0°C 20% 1.4 mph NNE2.3 kmh NNE 5.0 mph8.0 kmh 29.85 in1010.8 mb 0.00 in0.0 mm 0.00 in0.0 mm 0.00 in0.0 mm
02:00 AM 86.2°F30.1°C 39.0°F3.9°C 19% 0.3 mph N0.5 kmh N 3.0 mph4.8 kmh 29.85 in1010.8 mb 0.00 in0.0 mm 0.00 in0.0 mm 0.00 in0.0 mm
02:10 AM 86.1°F30.1°C 38.0°F3.3°C 18% 1.2 mph NNE1.9 kmh NNE 8.0 mph12.9 kmh 29.85 in1010.8 mb 0.00 in0.0 mm 0.00 in0.0 mm 0.00 in0.0 mm
02:20 AM 87.2°F30.7°C 39.0°F3.9°C 18% 4.1 mph NE6.6 kmh NE 8.0 mph12.9 kmh 29.85 in1010.8 mb 0.00 in0.0 mm 0.00 in0.0 mm 0.00 in0.0 mm
02:30 AM 87.1°F30.6°C 40.0°F4.4°C 19% 5.4 mph NNW8.7 kmh NNW 12.0 mph19.3 kmh 29.85 in1010.8 mb 0.00 in0.0 mm 0.00 in0.0 mm 0.00 in0.0 mm
02:40 AM 87.3°F30.7°C 39.0°F3.9°C 18% 6.0 mph NE9.7 kmh NE 13.0 mph20.9 kmh 29.85 in1010.8 mb 0.00 in0.0 mm 0.00 in0.0 mm 0.00 in0.0 mm
02:50 AM 87.2°F30.7°C 40.0°F4.4°C 19% 6.0 mph NE9.7 kmh NE 12.0 mph19.3 kmh 29.85 in1010.8 mb 0.00 in0.0 mm 0.00 in0.0 mm 0.00 in0.0 mm
03:00 AM 87.0°F30.6°C 39.0°F3.9°C 18% 5.8 mph N9.3 kmh N 10.0 mph16.1 kmh 29.85 in1010.8 mb 0.00 in0.0 mm 0.00 in0.0 mm 0.00 in0.0 mm
03:10 AM 87.5°F30.8°C 39.0°F3.9°C 18% 6.7 mph N10.8 kmh N 10.0 mph16.1 kmh 29.85 in1010.8 mb 0.00 in0.0 mm 0.00 in0.0 mm 0.00 in0.0 mm
03:20 AM 87.1°F30.6°C 39.0°F3.9°C 18% 6.9 mph N11.1 kmh N 12.0 mph19.3 kmh 29.86 in1011.2 mb 0.00 in0.0 mm 0.00 in0.0 mm 0.00 in0.0 mm
03:30 AM 86.3°F30.2°C 39.0°F3.9°C 19% 5.3 mph N8.5 kmh N 10.0 mph16.1 kmh 29.85 in1010.8 mb 0.00 in0.0 mm 0.00 in0.0 mm 0.00 in0.0 mm
03:40 AM 86.0°F30.0°C 39.0°F3.9°C 19% 4.8 mph N7.7 kmh N 9.0 mph14.5 kmh 29.86 in1011.2 mb 0.00 in0.0 mm 0.00 in0.0 mm 0.00 in0.0 mm
03:50 AM 85.3°F29.6°C 39.0°F3.9°C 19% 3.1 mph N5.0 kmh N 7.0 mph11.3 kmh 29.86 in1011.2 mb 0.00 in0.0 mm 0.00 in0.0 mm 0.00 in0.0 mm
04:00 AM 85.0°F29.4°C 38.0°F3.3°C 19% 3.1 mph NE5.0 kmh NE 8.0 mph12.9 kmh 29.86 in1011.2 mb 0.00 in0.0 mm 0.00 in0.0 mm 0.00 in0.0 mm
04:10 AM 84.7°F29.3°C 37.0°F2.8°C 18% 3.8 mph N6.1 kmh N 8.0 mph12.9 kmh 29.85 in1010.8 mb 0.00 in0.0 mm 0.00 in0.0 mm 0.00 in0.0 mm
04:20 AM 84.9°F29.4°C 37.0°F2.8°C 18% 5.4 mph N8.7 kmh N 10.0 mph16.1 kmh 29.86 in1011.2 mb 0.00 in0.0 mm 0.00 in0.0 mm 0.00 in0.0 mm
04:30 AM 85.1°F29.5°C 36.0°F2.2°C 17% 5.2 mph NE8.4 kmh NE 11.0 mph17.7 kmh 29.86 in1011.2 mb 0.00 in0.0 mm 0.00 in0.0 mm 0.00 in0.0 mm
04:40 AM 84.8°F29.3°C 35.0°F1.7°C 17% 3.5 mph NNE5.6 kmh NNE 7.0 mph11.3 kmh 29.86 in1011.2 mb 0.00 in0.0 mm 0.00 in0.0 mm 0.00 in0.0 mm
04:50 AM 84.9°F29.4°C 35.0°F1.7°C 17% 5.3 mph NNE8.5 kmh NNE 13.0 mph20.9 kmh 29.86 in1011.2 mb 0.00 in0.0 mm 0.00 in0.0 mm 0.00 in0.0 mm
05:00 AM 84.7°F29.3°C 35.0°F1.7°C 17% 5.6 mph NNW9.0 kmh NNW 10.0 mph16.1 kmh 29.86 in1011.2 mb 0.00 in0.0 mm 0.00 in0.0 mm 0.00 in0.0 mm
05:10 AM 84.3°F29.1°C 35.0°F1.7°C 17% 4.0 mph N6.4 kmh N 7.0 mph11.3 kmh 29.87 in1011.5 mb 0.00 in0.0 mm 0.00 in0.0 mm 0.00 in0.0 mm
05:20 AM 84.2°F29.0°C 35.0°F1.7°C 17% 3.1 mph N5.0 kmh N 6.0 mph9.7 kmh 29.87 in1011.5 mb 0.00 in0.0 mm 0.00 in0.0 mm 0.00 in0.0 mm
05:30 AM 84.0°F28.9°C 35.0°F1.7°C 17% 2.9 mph NNW4.7 kmh NNW 10.0 mph16.1 kmh 29.87 in1011.5 mb 0.00 in0.0 mm 0.00 in0.0 mm 0.00 in0.0 mm
05:40 AM 84.2°F29.0°C 33.0°F0.6°C 16% 3.1 mph N5.0 kmh N 9.0 mph14.5 kmh 29.88 in1011.9 mb 0.00 in0.0 mm 0.00 in0.0 mm 0.00 in0.0 mm
05:50 AM 84.7°F29.3°C 34.0°F1.1°C 16% 4.4 mph N7.1 kmh N 10.0 mph16.1 kmh 29.88 in1011.9 mb 0.00 in0.0 mm 0.00 in0.0 mm 0.00 in0.0 mm
06:00 AM 84.5°F29.2°C 34.0°F1.1°C 16% 4.1 mph NNW6.6 kmh NNW 10.0 mph16.1 kmh 29.88 in1011.9 mb 0.00 in0.0 mm 0.00 in0.0 mm 0.00 in0.0 mm
06:10 AM 84.9°F29.4°C 34.0°F1.1°C 16% 5.7 mph NW9.2 kmh NW 13.0 mph20.9 kmh 29.89 in1012.2 mb 0.00 in0.0 mm 0.00 in0.0 mm 0.00 in0.0 mm
06:20 AM 84.8°F29.3°C 34.0°F1.1°C 16% 5.7 mph N9.2 kmh N 12.0 mph19.3 kmh 29.89 in1012.2 mb 0.00 in0.0 mm 0.00 in0.0 mm 0.00 in0.0 mm
06:30 AM 85.4°F29.7°C 33.0°F0.6°C 15% 5.6 mph N9.0 kmh N 14.0 mph22.5 kmh 29.89 in1012.2 mb 0.00 in0.0 mm 0.00 in0.0 mm 0.00 in0.0 mm
06:40 AM 85.4°F29.7°C 34.0°F1.1°C 16% 2.9 mph NNE4.7 kmh NNE 8.0 mph12.9 kmh 29.89 in1012.2 mb 0.00 in0.0 mm 0.00 in0.0 mm 0.00 in0.0 mm
06:50 AM 85.9°F29.9°C 35.0°F1.7°C 16% 3.5 mph NNE5.6 kmh NNE 7.0 mph11.3 kmh 29.89 in1012.2 mb 0.00 in0.0 mm 0.00 in0.0 mm 0.00 in0.0 mm
07:00 AM 86.1°F30.1°C 35.0°F1.7°C 16% 2.3 mph NE3.7 kmh NE 5.0 mph8.0 kmh 29.89 in1012.2 mb 0.00 in0.0 mm 0.00 in0.0 mm 0.00 in0.0 mm
07:10 AM 86.6°F30.3°C 34.0°F1.1°C 15% 2.4 mph N3.9 kmh N 6.0 mph9.7 kmh 29.89 in1012.2 mb 0.00 in0.0 mm 0.00 in0.0 mm 0.00 in0.0 mm
07:20 AM 87.5°F30.8°C 34.0°F1.1°C 15% 2.9 mph N4.7 kmh N 6.0 mph9.7 kmh 29.89 in1012.2 mb 0.00 in0.0 mm 0.00 in0.0 mm 0.00 in0.0 mm
07:30 AM 88.0°F31.1°C 35.0°F1.7°C 15% 1.6 mph NNW2.6 kmh NNW 5.0 mph8.0 kmh 29.89 in1012.2 mb 0.00 in0.0 mm 0.00 in0.0 mm 0.00 in0.0 mm
07:40 AM 89.7°F32.1°C 34.0°F1.1°C 14% 2.0 mph N3.2 kmh N 5.0 mph8.0 kmh 29.89 in1012.2 mb 0.00 in0.0 mm 0.00 in0.0 mm 0.00 in0.0 mm
07:50 AM 90.8°F32.7°C 35.0°F1.7°C 14% 1.9 mph N3.1 kmh N 4.0 mph6.4 kmh 29.89 in1012.2 mb 0.00 in0.0 mm 0.00 in0.0 mm 0.00 in0.0 mm
08:00 AM 91.2°F32.9°C 36.0°F2.2°C 14% 3.7 mph ENE6.0 kmh ENE 8.0 mph12.9 kmh 29.90 in1012.5 mb 0.00 in0.0 mm 0.00 in0.0 mm 0.00 in0.0 mm
08:10 AM 91.9°F33.3°C 36.0°F2.2°C 14% 3.7 mph N6.0 kmh N 9.0 mph14.5 kmh 29.90 in1012.5 mb 0.00 in0.0 mm 0.00 in0.0 mm 0.00 in0.0 mm
08:20 AM 93.0°F33.9°C 35.0°F1.7°C 13% 3.9 mph N6.3 kmh N 11.0 mph17.7 kmh 29.90 in1012.5 mb 0.00 in0.0 mm 0.00 in0.0 mm 0.00 in0.0 mm
08:30 AM 93.8°F34.3°C 34.0°F1.1°C 12% 3.1 mph NE5.0 kmh NE 7.0 mph11.3 kmh 29.90 in1012.5 mb 0.00 in0.0 mm 0.00 in0.0 mm 0.00 in0.0 mm
08:40 AM 94.4°F34.7°C 34.0°F1.1°C 12% 3.2 mph NW5.1 kmh NW 7.0 mph11.3 kmh 29.90 in1012.5 mb 0.00 in0.0 mm 0.00 in0.0 mm 0.00 in0.0 mm
08:50 AM 95.4°F35.2°C 35.0°F1.7°C 12% 2.8 mph N4.5 kmh N 6.0 mph9.7 kmh 29.91 in1012.9 mb 0.00 in0.0 mm 0.00 in0.0 mm 0.00 in0.0 mm
09:00 AM 96.4°F35.8°C 36.0°F2.2°C 12% 1.7 mph NNE2.7 kmh NNE 4.0 mph6.4 kmh 29.91 in1012.9 mb 0.00 in0.0 mm 0.00 in0.0 mm 0.00 in0.0 mm
09:10 AM 98.8°F37.1°C 40.0°F4.4°C 13% 0.8 mph SE1.3 kmh SE 5.0 mph8.0 kmh 29.91 in1012.9 mb 0.00 in0.0 mm 0.00 in0.0 mm 0.00 in0.0 mm
09:20 AM 98.7°F37.1°C 38.0°F3.3°C 12% 2.1 mph SE3.4 kmh SE 5.0 mph8.0 kmh 29.91 in1012.9 mb 0.00 in0.0 mm 0.00 in0.0 mm 0.00 in0.0 mm
09:30 AM 99.1°F37.3°C 38.0°F3.3°C 12% 2.1 mph SSW3.4 kmh SSW 5.0 mph8.0 kmh 29.91 in1012.9 mb 0.00 in0.0 mm 0.00 in0.0 mm 0.00 in0.0 mm
09:40 AM 100.2°F37.9°C 37.0°F2.8°C 11% 1.8 mph SW2.9 kmh SW 6.0 mph9.7 kmh 29.91 in1012.9 mb 0.00 in0.0 mm 0.00 in0.0 mm 0.00 in0.0 mm
09:50 AM 99.9°F37.7°C 39.0°F3.9°C 12% 1.8 mph SW2.9 kmh SW 5.0 mph8.0 kmh 29.91 in1012.9 mb 0.00 in0.0 mm 0.00 in0.0 mm 0.00 in0.0 mm
10:00 AM 100.6°F38.1°C 37.0°F2.8°C 11% 1.8 mph SE2.9 kmh SE 5.0 mph8.0 kmh 29.91 in1012.9 mb 0.00 in0.0 mm 0.00 in0.0 mm 0.00 in0.0 mm
10:10 AM 101.8°F38.8°C 33.0°F0.6°C 9% 1.3 mph SE2.1 kmh SE 3.0 mph4.8 kmh 29.91 in1012.9 mb 0.00 in0.0 mm 0.00 in0.0 mm 0.00 in0.0 mm
10:20 AM 102.8°F39.3°C 34.0°F1.1°C 9% 1.1 mph WSW1.8 kmh WSW 4.0 mph6.4 kmh 29.91 in1012.9 mb 0.00 in0.0 mm 0.00 in0.0 mm 0.00 in0.0 mm
10:30 AM 102.7°F39.3°C 36.0°F2.2°C 10% 2.0 mph SE3.2 kmh SE 6.0 mph9.7 kmh 29.91 in1012.9 mb 0.00 in0.0 mm 0.00 in0.0 mm 0.00 in0.0 mm
10:40 AM 103.5°F39.7°C 37.0°F2.8°C 10% 1.8 mph S2.9 kmh S 5.0 mph8.0 kmh 29.91 in1012.9 mb 0.00 in0.0 mm 0.00 in0.0 mm 0.00 in0.0 mm
10:50 AM 103.1°F39.5°C 37.0°F2.8°C 10% 2.2 mph SE3.5 kmh SE 6.0 mph9.7 kmh 29.91 in1012.9 mb 0.00 in0.0 mm 0.00 in0.0 mm 0.00 in0.0 mm
11:00 AM 104.3°F40.2°C 35.0°F1.7°C 9% 1.5 mph ESE2.4 kmh ESE 6.0 mph9.7 kmh 29.91 in1012.9 mb 0.00 in0.0 mm 0.00 in0.0 mm 0.00 in0.0 mm
11:10 AM 104.9°F40.5°C 38.0°F3.3°C 10% 2.1 mph SW3.4 kmh SW 6.0 mph9.7 kmh 29.90 in1012.5 mb 0.00 in0.0 mm 0.00 in0.0 mm 0.00 in0.0 mm
11:20 AM 105.3°F40.7°C 36.0°F2.2°C 9% 1.7 mph SW2.7 kmh SW 5.0 mph8.0 kmh 29.90 in1012.5 mb 0.00 in0.0 mm 0.00 in0.0 mm 0.00 in0.0 mm
11:30 AM 105.1°F40.6°C 36.0°F2.2°C 9% 2.1 mph SW3.4 kmh SW 6.0 mph9.7 kmh 29.90 in1012.5 mb 0.00 in0.0 mm 0.00 in0.0 mm 0.00 in0.0 mm
11:40 AM 104.5°F40.3°C 35.0°F1.7°C 9% 2.9 mph SSE4.7 kmh SSE 7.0 mph11.3 kmh 29.89 in1012.2 mb 0.00 in0.0 mm 0.00 in0.0 mm 0.00 in0.0 mm
11:50 AM 105.7°F40.9°C 36.0°F2.2°C 9% 2.9 mph SW4.7 kmh SW 8.0 mph12.9 kmh 29.89 in1012.2 mb 0.00 in0.0 mm 0.00 in0.0 mm 0.00 in0.0 mm
12:00 PM 105.8°F41.0°C 36.0°F2.2°C 9% 2.5 mph SW4.0 kmh SW 8.0 mph12.9 kmh 29.89 in1012.2 mb 0.00 in0.0 mm 0.00 in0.0 mm 0.00 in0.0 mm
12:10 PM 106.1°F41.2°C 33.0°F0.6°C 8% 2.7 mph SSW4.3 kmh SSW 7.0 mph11.3 kmh 29.89 in1012.2 mb 0.00 in0.0 mm 0.00 in0.0 mm 0.00 in0.0 mm
12:20 PM 105.4°F40.8°C 36.0°F2.2°C 9% 2.5 mph SW4.0 kmh SW 8.0 mph12.9 kmh 29.88 in1011.9 mb 0.00 in0.0 mm 0.00 in0.0 mm 0.00 in0.0 mm
12:30 PM 105.3°F40.7°C 33.0°F0.6°C 8% 4.3 mph S6.9 kmh S 11.0 mph17.7 kmh 29.88 in1011.9 mb 0.00 in0.0 mm 0.00 in0.0 mm 0.00 in0.0 mm
12:40 PM 106.4°F41.3°C 37.0°F2.8°C 9% 3.1 mph SW5.0 kmh SW 10.0 mph16.1 kmh 29.88 in1011.9 mb 0.00 in0.0 mm 0.00 in0.0 mm 0.00 in0.0 mm
12:50 PM 106.3°F41.3°C 34.0°F1.1°C 8% 4.3 mph SE6.9 kmh SE 10.0 mph16.1 kmh 29.87 in1011.5 mb 0.00 in0.0 mm 0.00 in0.0 mm 0.00 in0.0 mm
01:00 PM 106.8°F41.6°C 31.0°F-0.6°C 7% 2.7 mph S4.3 kmh S 12.0 mph19.3 kmh 29.87 in1011.5 mb 0.00 in0.0 mm 0.00 in0.0 mm 0.00 in0.0 mm
01:10 PM 107.8°F42.1°C 31.0°F-0.6°C 7% 2.5 mph ENE4.0 kmh ENE 8.0 mph12.9 kmh 29.87 in1011.5 mb 0.00 in0.0 mm 0.00 in0.0 mm 0.00 in0.0 mm
01:20 PM 108.1°F42.3°C 32.0°F0.0°C 7% 2.2 mph SSE3.5 kmh SSE 10.0 mph16.1 kmh 29.86 in1011.2 mb 0.00 in0.0 mm 0.00 in0.0 mm 0.00 in0.0 mm
01:30 PM 108.0°F42.2°C 31.0°F-0.6°C 7% 2.5 mph SW4.0 kmh SW 10.0 mph16.1 kmh 29.86 in1011.2 mb 0.00 in0.0 mm 0.00 in0.0 mm 0.00 in0.0 mm
01:40 PM 108.1°F42.3°C 35.0°F1.7°C 8% 2.0 mph SW3.2 kmh SW 7.0 mph11.3 kmh 29.86 in1011.2 mb 0.00 in0.0 mm 0.00 in0.0 mm 0.00 in0.0 mm
01:50 PM 107.6°F42.0°C 35.0°F1.7°C 8% 4.2 mph SSW6.8 kmh SSW 10.0 mph16.1 kmh 29.86 in1011.2 mb 0.00 in0.0 mm 0.00 in0.0 mm 0.00 in0.0 mm
02:00 PM 108.1°F42.3°C 35.0°F1.7°C 8% 1.7 mph SE2.7 kmh SE 7.0 mph11.3 kmh 29.85 in1010.8 mb 0.00 in0.0 mm 0.00 in0.0 mm 0.00 in0.0 mm
02:10 PM 108.8°F42.7°C 32.0°F0.0°C 7% 2.7 mph SSW4.3 kmh SSW 8.0 mph12.9 kmh 29.85 in1010.8 mb 0.00 in0.0 mm 0.00 in0.0 mm 0.00 in0.0 mm
02:20 PM 107.8°F42.1°C 31.0°F-0.6°C 7% 3.1 mph ESE5.0 kmh ESE 11.0 mph17.7 kmh 29.84 in1010.5 mb 0.00 in0.0 mm 0.00 in0.0 mm 0.00 in0.0 mm
02:30 PM 108.7°F42.6°C 32.0°F0.0°C 7% 2.0 mph SSW3.2 kmh SSW 8.0 mph12.9 kmh 29.84 in1010.5 mb 0.00 in0.0 mm 0.00 in0.0 mm 0.00 in0.0 mm
02:40 PM 109.6°F43.1°C 29.0°F-1.7°C 6% 3.1 mph SE5.0 kmh SE 8.0 mph12.9 kmh 29.83 in1010.2 mb 0.00 in0.0 mm 0.00 in0.0 mm 0.00 in0.0 mm
02:50 PM 108.8°F42.7°C 32.0°F0.0°C 7% 2.5 mph SSE4.0 kmh SSE 9.0 mph14.5 kmh 29.83 in1010.2 mb 0.00 in0.0 mm 0.00 in0.0 mm 0.00 in0.0 mm
03:00 PM 109.2°F42.9°C 29.0°F-1.7°C 6% 3.3 mph SSW5.3 kmh SSW 11.0 mph17.7 kmh 29.82 in1009.8 mb 0.00 in0.0 mm 0.00 in0.0 mm 0.00 in0.0 mm
03:10 PM 109.0°F42.8°C 32.0°F0.0°C 7% 3.0 mph SW4.8 kmh SW 9.0 mph14.5 kmh 29.82 in1009.8 mb 0.00 in0.0 mm 0.00 in0.0 mm 0.00 in0.0 mm
03:20 PM 109.7°F43.2°C 33.0°F0.6°C 7% 0.8 mph SSW1.3 kmh SSW 5.0 mph8.0 kmh 29.82 in1009.8 mb 0.00 in0.0 mm 0.00 in0.0 mm 0.00 in0.0 mm
03:30 PM 109.2°F42.9°C 32.0°F0.0°C 7% 1.9 mph NNE3.1 kmh NNE 8.0 mph12.9 kmh 29.81 in1009.5 mb 0.00 in0.0 mm 0.00 in0.0 mm 0.00 in0.0 mm
03:40 PM 109.2°F42.9°C 32.0°F0.0°C 7% 2.8 mph ESE4.5 kmh ESE 8.0 mph12.9 kmh 29.81 in1009.5 mb 0.00 in0.0 mm 0.00 in0.0 mm 0.00 in0.0 mm
03:50 PM 109.0°F42.8°C 28.0°F-2.2°C 6% 2.5 mph S4.0 kmh S 8.0 mph12.9 kmh 29.80 in1009.1 mb 0.00 in0.0 mm 0.00 in0.0 mm 0.00 in0.0 mm
04:00 PM 108.7°F42.6°C 28.0°F-2.2°C 6% 4.0 mph S6.4 kmh S 8.0 mph12.9 kmh 29.81 in1009.5 mb 0.00 in0.0 mm 0.00 in0.0 mm 0.00 in0.0 mm
04:10 PM 108.5°F42.5°C 32.0°F0.0°C 7% 3.2 mph S5.1 kmh S 10.0 mph16.1 kmh 29.80 in1009.1 mb 0.00 in0.0 mm 0.00 in0.0 mm 0.00 in0.0 mm
04:20 PM 108.4°F42.4°C 28.0°F-2.2°C 6% 2.2 mph NE3.5 kmh NE 6.0 mph9.7 kmh 29.80 in1009.1 mb 0.00 in0.0 mm 0.00 in0.0 mm 0.00 in0.0 mm
04:30 PM 108.6°F42.6°C 28.0°F-2.2°C 6% 0.8 mph WNW1.3 kmh WNW 3.0 mph4.8 kmh 29.79 in1008.8 mb 0.00 in0.0 mm 0.00 in0.0 mm 0.00 in0.0 mm
04:40 PM 108.6°F42.6°C 28.0°F-2.2°C 6% 2.3 mph SSW3.7 kmh SSW 8.0 mph12.9 kmh 29.79 in1008.8 mb 0.00 in0.0 mm 0.00 in0.0 mm 0.00 in0.0 mm
04:50 PM 108.3°F42.4°C 28.0°F-2.2°C 6% 2.7 mph SSW4.3 kmh SSW 10.0 mph16.1 kmh 29.79 in1008.8 mb 0.00 in0.0 mm 0.00 in0.0 mm 0.00 in0.0 mm
05:00 PM 107.7°F42.1°C 31.0°F-0.6°C 7% 2.3 mph SW3.7 kmh SW 5.0 mph8.0 kmh 29.78 in1008.5 mb 0.00 in0.0 mm 0.00 in0.0 mm 0.00 in0.0 mm
05:10 PM 108.1°F42.3°C 32.0°F0.0°C 7% 1.3 mph SSW2.1 kmh SSW 7.0 mph11.3 kmh 29.78 in1008.5 mb 0.00 in0.0 mm 0.00 in0.0 mm 0.00 in0.0 mm
05:20 PM 108.0°F42.2°C 31.0°F-0.6°C 7% 1.7 mph SSW2.7 kmh SSW 10.0 mph16.1 kmh 29.78 in1008.5 mb 0.00 in0.0 mm 0.00 in0.0 mm 0.00 in0.0 mm
05:30 PM 107.5°F41.9°C 31.0°F-0.6°C 7% 3.6 mph SW5.8 kmh SW 9.0 mph14.5 kmh 29.78 in1008.5 mb 0.00 in0.0 mm 0.00 in0.0 mm 0.00 in0.0 mm
05:40 PM 107.2°F41.8°C 31.0°F-0.6°C 7% 2.7 mph SSW4.3 kmh SSW 10.0 mph16.1 kmh 29.78 in1008.5 mb 0.00 in0.0 mm 0.00 in0.0 mm 0.00 in0.0 mm
05:50 PM 107.3°F41.8°C 31.0°F-0.6°C 7% 1.4 mph SW2.3 kmh SW 6.0 mph9.7 kmh 29.78 in1008.5 mb 0.00 in0.0 mm 0.00 in0.0 mm 0.00 in0.0 mm
06:00 PM 106.9°F41.6°C 31.0°F-0.6°C 7% 1.8 mph S2.9 kmh S 6.0 mph9.7 kmh 29.78 in1008.5 mb 0.00 in0.0 mm 0.00 in0.0 mm 0.00 in0.0 mm
06:10 PM 106.5°F41.4°C 30.0°F-1.1°C 7% 2.6 mph S4.2 kmh S 6.0 mph9.7 kmh 29.77 in1008.1 mb 0.00 in0.0 mm 0.00 in0.0 mm 0.00 in0.0 mm
06:20 PM 106.3°F41.3°C 30.0°F-1.1°C 7% 3.0 mph SW4.8 kmh SW 9.0 mph14.5 kmh 29.77 in1008.1 mb 0.00 in0.0 mm 0.00 in0.0 mm 0.00 in0.0 mm
06:30 PM 106.0°F41.1°C 30.0°F-1.1°C 7% 2.0 mph SE3.2 kmh SE 6.0 mph9.7 kmh 29.78 in1008.5 mb 0.00 in0.0 mm 0.00 in0.0 mm 0.00 in0.0 mm
06:40 PM 105.5°F40.8°C 30.0°F-1.1°C 7% 1.9 mph S3.1 kmh S 6.0 mph9.7 kmh 29.78 in1008.5 mb 0.00 in0.0 mm 0.00 in0.0 mm 0.00 in0.0 mm
06:50 PM 105.2°F40.7°C 29.0°F-1.7°C 7% 2.3 mph SSW3.7 kmh SSW 6.0 mph9.7 kmh 29.78 in1008.5 mb 0.00 in0.0 mm 0.00 in0.0 mm 0.00 in0.0 mm
07:00 PM 104.7°F40.4°C 29.0°F-1.7°C 7% 2.4 mph SW3.9 kmh SW 7.0 mph11.3 kmh 29.78 in1008.5 mb 0.00 in0.0 mm 0.00 in0.0 mm 0.00 in0.0 mm
07:10 PM 104.1°F40.1°C 29.0°F-1.7°C 7% 2.9 mph SSW4.7 kmh SSW 7.0 mph11.3 kmh 29.78 in1008.5 mb 0.00 in0.0 mm 0.00 in0.0 mm 0.00 in0.0 mm
07:20 PM 103.4°F39.7°C 31.0°F-0.6°C 8% 1.7 mph SW2.7 kmh SW 5.0 mph8.0 kmh 29.79 in1008.8 mb 0.00 in0.0 mm 0.00 in0.0 mm 0.00 in0.0 mm
07:30 PM 102.6°F39.2°C 31.0°F-0.6°C 8% 1.5 mph SSW2.4 kmh SSW 3.0 mph4.8 kmh 29.79 in1008.8 mb 0.00 in0.0 mm 0.00 in0.0 mm 0.00 in0.0 mm
07:40 PM 101.6°F38.7°C 33.0°F0.6°C 9% 0.3 mph SW0.5 kmh SW 2.0 mph3.2 kmh 29.79 in1008.8 mb 0.00 in0.0 mm 0.00 in0.0 mm 0.00 in0.0 mm
07:50 PM 100.6°F38.1°C 32.0°F0.0°C 9% 0.2 mph SW0.3 kmh SW 2.0 mph3.2 kmh 29.80 in1009.1 mb 0.00 in0.0 mm 0.00 in0.0 mm 0.00 in0.0 mm
08:00 PM 99.8°F37.7°C 34.0°F1.1°C 10% 0.1 mph SE0.2 kmh SE 2.0 mph3.2 kmh 29.80 in1009.1 mb 0.00 in0.0 mm 0.00 in0.0 mm 0.00 in0.0 mm
08:10 PM 98.9°F37.2°C 33.0°F0.6°C 10% 0.3 mph SE0.5 kmh SE 1.0 mph1.6 kmh 29.80 in1009.1 mb 0.00 in0.0 mm 0.00 in0.0 mm 0.00 in0.0 mm
08:20 PM 97.4°F36.3°C 35.0°F1.7°C 11% Calm Calm 1.0 mph1.6 kmh 29.81 in1009.5 mb 0.00 in0.0 mm 0.00 in0.0 mm 0.00 in0.0 mm
08:30 PM 96.4°F35.8°C 34.0°F1.1°C 11% Calm Calm 1.0 mph1.6 kmh 29.81 in1009.5 mb 0.00 in0.0 mm 0.00 in0.0 mm 0.00 in0.0 mm
08:40 PM 95.9°F35.5°C 33.0°F0.6°C 11% Calm Calm 1.0 mph1.6 kmh 29.81 in1009.5 mb 0.00 in0.0 mm 0.00 in0.0 mm 0.00 in0.0 mm
08:50 PM 95.2°F35.1°C 33.0°F0.6°C 11% Calm Calm 1.0 mph1.6 kmh 29.82 in1009.8 mb 0.00 in0.0 mm 0.00 in0.0 mm 0.00 in0.0 mm
09:00 PM 95.1°F35.1°C 35.0°F1.7°C 12% Calm Calm 1.0 mph1.6 kmh 29.82 in1009.8 mb 0.00 in0.0 mm 0.00 in0.0 mm 0.00 in0.0 mm
09:10 PM 94.5°F34.7°C 34.0°F1.1°C 12% Calm Calm 1.0 mph1.6 kmh 29.82 in1009.8 mb 0.00 in0.0 mm 0.00 in0.0 mm 0.00 in0.0 mm
09:20 PM 94.1°F34.5°C 34.0°F1.1°C 12% Calm Calm 1.0 mph1.6 kmh 29.83 in1010.2 mb 0.00 in0.0 mm 0.00 in0.0 mm 0.00 in0.0 mm
09:30 PM 93.5°F34.2°C 36.0°F2.2°C 13% Calm Calm -- 29.83 in1010.2 mb 0.00 in0.0 mm 0.00 in0.0 mm 0.00 in0.0 mm
09:40 PM 93.4°F34.1°C 34.0°F1.1°C 12% Calm Calm 1.0 mph1.6 kmh 29.83 in1010.2 mb 0.00 in0.0 mm 0.00 in0.0 mm 0.00 in0.0 mm
09:50 PM 93.3°F34.1°C 34.0°F1.1°C 12% Calm Calm 1.0 mph1.6 kmh 29.83 in1010.2 mb 0.00 in0.0 mm 0.00 in0.0 mm 0.00 in0.0 mm
10:00 PM 93.0°F33.9°C 35.0°F1.7°C 13% Calm Calm 1.0 mph1.6 kmh 29.83 in1010.2 mb 0.00 in0.0 mm 0.00 in0.0 mm 0.00 in0.0 mm
10:10 PM 94.2°F34.6°C 34.0°F1.1°C 12% 0.4 mph SE0.6 kmh SE 2.0 mph3.2 kmh 29.83 in1010.2 mb 0.00 in0.0 mm 0.00 in0.0 mm 0.00 in0.0 mm
10:20 PM 93.1°F33.9°C 35.0°F1.7°C 13% Calm Calm -- 29.83 in1010.2 mb 0.00 in0.0 mm 0.00 in0.0 mm 0.00 in0.0 mm
10:30 PM 91.9°F33.3°C 34.0°F1.1°C 13% Calm Calm 1.0 mph1.6 kmh 29.84 in1010.5 mb 0.00 in0.0 mm 0.00 in0.0 mm 0.00 in0.0 mm
10:40 PM 93.2°F34.0°C 35.0°F1.7°C 13% 1.4 mph SE2.3 kmh SE 3.0 mph4.8 kmh 29.83 in1010.2 mb 0.00 in0.0 mm 0.00 in0.0 mm 0.00 in0.0 mm
10:50 PM 93.6°F34.2°C 34.0°F1.1°C 12% 1.0 mph SE1.6 kmh SE 3.0 mph4.8 kmh 29.84 in1010.5 mb 0.00 in0.0 mm 0.00 in0.0 mm 0.00 in0.0 mm
11:00 PM 92.7°F33.7°C 35.0°F1.7°C 13% Calm Calm 1.0 mph1.6 kmh 29.84 in1010.5 mb 0.00 in0.0 mm 0.00 in0.0 mm 0.00 in0.0 mm
11:10 PM 93.4°F34.1°C 34.0°F1.1°C 12% 0.3 mph SE0.5 kmh SE 2.0 mph3.2 kmh 29.84 in1010.5 mb 0.00 in0.0 mm 0.00 in0.0 mm 0.00 in0.0 mm
11:20 PM 93.0°F33.9°C 35.0°F1.7°C 13% 0.2 mph SE0.3 kmh SE 1.0 mph1.6 kmh 29.84 in1010.5 mb 0.00 in0.0 mm 0.00 in0.0 mm 0.00 in0.0 mm
11:30 PM 91.2°F32.9°C 36.0°F2.2°C 14% Calm Calm 1.0 mph1.6 kmh 29.84 in1010.5 mb 0.00 in0.0 mm 0.00 in0.0 mm 0.00 in0.0 mm
11:40 PM 90.2°F32.3°C 35.0°F1.7°C 14% Calm Calm -- 29.83 in1010.2 mb 0.00 in0.0 mm 0.00 in0.0 mm 0.00 in0.0 mm
11:50 PM 89.2°F31.8°C 37.0°F2.8°C 16% Calm Calm 1.0 mph1.6 kmh 29.83 in1010.2 mb 0.00 in0.0 mm 0.00 in0.0 mm 0.00 in0.0 mm